Time;durP1;ratioP1;P1;durP2;ratioP2;P2;SDS_P1;SDS_P2;PMS_P1;PMS_P2;Temp;Humidity;BMP_temperature;BMP_pressure;BME280_temperature;BME280_humidity;BME280_pressure;Samples;Min_cycle;Max_cycle;Signal;HPM_P1;HPM_P2
2021/12/14 00:00:30;;;;;;;59.00;33.58;;;77.10;2022.40;;;;;;5094222;28;20044;-58
2021/12/14 00:02:58;;;;;;;51.88;29.27;;;77.00;1996.80;;;;;;5094085;28;20024;-58
2021/12/14 00:05:26;;;;;;;52.47;29.27;;;77.00;2022.40;;;;;;5093999;28;20469;-58
2021/12/14 00:07:56;;;;;;;53.00;29.02;;;76.90;2022.40;;;;;;5093456;28;20063;-58
2021/12/14 00:13:17;;;;;;;248.43;45.50;;;76.90;2073.60;;;;;;5094490;28;20024;-55
2021/12/14 00:15:43;;;;;;;658.75;68.88;;;77.00;2227.20;;;;;;5093999;28;20469;-58
2021/12/14 00:18:13;;;;;;;64.47;35.13;;;77.20;2227.20;;;;;;5093864;28;20020;-58
2021/12/14 00:20:49;;;;;;;57.22;29.30;;;77.30;2227.20;;;;;;5093884;28;20071;-58
2021/12/14 00:25:52;;;;;;;82.05;38.45;;;77.40;1971.20;;;;;;5093879;28;20082;-58
2021/12/14 00:28:23;;;;;;;86.97;41.58;;;77.10;1996.80;;;;;;5094484;28;20040;-58
2021/12/14 00:30:51;;;;;;;90.25;45.28;;;77.00;2022.40;;;;;;5093667;28;20080;-57
2021/12/14 00:33:21;;;;;;;83.53;41.13;;;77.00;2022.40;;;;;;5093482;28;20024;-56
2021/12/14 00:35:47;;;;;;;84.88;43.17;;;76.90;2022.40;;;;;;5093676;28;20090;-58
2021/12/14 00:38:15;;;;;;;80.65;41.65;;;76.80;2022.40;;;;;;5093448;28;20458;-58
2021/12/14 00:40:45;;;;;;;78.50;38.38;;;76.80;2022.40;;;;;;5093686;28;20032;-58
2021/12/14 00:43:11;;;;;;;73.13;38.65;;;52.10;2022.40;;;;;;5093327;28;20390;-56
2021/12/14 00:45:41;;;;;;;73.78;39.20;;;52.00;2022.40;;;;;;5093156;28;20104;-58
2021/12/14 00:48:08;;;;;;;77.15;39.88;;;52.00;2022.40;;;;;;5093663;28;20020;-58
2021/12/14 00:50:36;;;;;;;172.77;47.90;;;52.10;2099.20;;;;;;5093469;28;20027;-58
2021/12/14 00:53:02;;;;;;;71.28;37.78;;;76.80;2227.20;;;;;;5093680;28;20020;-58
2021/12/14 00:55:40;;;;;;;66.78;35.15;;;77.00;2150.40;;;;;;5093669;28;20418;-58
2021/12/14 00:58:06;;;;;;;74.13;35.63;;;77.00;2073.60;;;;;;5093601;28;20052;-56
2021/12/14 01:00:36;;;;;;;67.03;34.63;;;77.10;1971.20;;;;;;5093509;28;20093;-58
2021/12/14 01:03:03;;;;;;;61.80;34.45;;;77.00;1971.20;;;;;;5093584;28;20028;-56
2021/12/14 01:05:35;;;;;;;64.35;33.97;;;76.80;1996.80;;;;;;5093100;28;20035;-57
2021/12/14 01:08:04;;;;;;;65.90;34.63;;;76.80;1996.80;;;;;;5095009;28;20423;-58
2021/12/14 01:10:38;;;;;;;61.05;32.65;;;76.80;1996.80;;;;;;5097082;28;20069;-58
2021/12/14 01:13:08;;;;;;;54.83;30.15;;;76.80;1996.80;;;;;;5096905;28;20024;-59
2021/12/14 01:24:02;;;;;;;50.90;28.70;;;52.10;2022.40;;;;;;5097321;28;20027;-54
2021/12/14 01:26:31;;;;;;;47.25;27.20;;;76.80;2176.00;;;;;;5097842;28;20062;-56
2021/12/14 01:28:59;;;;;;;46.17;26.20;;;76.90;2227.20;;;;;;5097376;28;20020;-58
2021/12/14 01:31:33;;;;;;;44.28;24.88;;;76.90;2073.60;;;;;;5097032;28;20021;-58
2021/12/14 01:34:05;;;;;;;55.78;28.42;;;77.10;1996.80;;;;;;5097081;28;20042;-58
2021/12/14 01:39:47;;;;;;;59.70;29.58;;;76.80;1971.20;;;;;;5096718;28;20145;-58
2021/12/14 01:42:23;;;;;;;54.08;28.17;;;52.10;1971.20;;;;;;5034049;28;20053;-57
2021/12/14 01:45:00;;;;;;;57.72;30.50;;;52.00;1996.80;;;;;;5034471;28;20527;-58
2021/12/14 01:47:33;;;;;;;59.35;32.05;;;51.90;1996.80;;;;;;5034956;28;20087;-58
2021/12/14 01:49:59;;;;;;;60.60;31.85;;;51.80;1996.80;;;;;;5034305;28;20124;-58
2021/12/14 01:52:31;;;;;;;62.47;33.80;;;51.80;1996.80;;;;;;5034417;28;20069;-59
2021/12/14 01:55:07;;;;;;;68.15;36.10;;;51.70;1996.80;;;;;;5034520;28;20087;-58
2021/12/14 01:57:34;;;;;;;86.63;40.78;;;51.70;1996.80;;;;;;5034206;28;20029;-58
2021/12/14 02:00:02;;;;;;;321.92;56.28;;;51.70;2099.20;;;;;;5034317;28;20050;-56
2021/12/14 02:02:41;;;;;;;75.68;38.80;;;51.90;2227.20;;;;;;5034015;28;20071;-56
2021/12/14 02:05:19;;;;;;;60.63;35.08;;;52.10;2176.00;;;;;;5034052;28;20099;-55
2021/12/14 02:07:45;;;;;;;59.38;33.28;;;52.10;2048.00;;;;;;5033964;28;20053;-56
2021/12/14 02:10:19;;;;;;;63.75;34.15;;;52.10;1971.20;;;;;;5033950;28;20026;-56
2021/12/14 02:12:45;;;;;;;69.88;36.45;;;51.90;1971.20;;;;;;5034014;28;20522;-57
2021/12/14 02:15:19;;;;;;;73.55;39.78;;;51.90;1971.20;;;;;;5033906;28;20033;-58
2021/12/14 02:17:46;;;;;;;72.32;37.92;;;51.80;1996.80;;;;;;5021134;28;20045;-58
2021/12/14 02:20:19;;;;;;;67.28;34.80;;;51.80;1996.80;;;;;;5094812;28;20113;-58
2021/12/14 02:22:45;;;;;;;62.75;35.40;;;51.70;1996.80;;;;;;5096056;28;20024;-58
2021/12/14 02:25:12;;;;;;;66.15;34.35;;;51.60;1996.80;;;;;;5096077;28;20030;-58
2021/12/14 02:27:44;;;;;;;68.30;34.35;;;51.50;1996.80;;;;;;5096037;28;20078;-58
2021/12/14 02:30:16;;;;;;;67.85;34.50;;;51.40;1996.80;;;;;;5095746;28;20058;-56
2021/12/14 02:32:43;;;;;;;85.00;45.42;;;51.40;1996.80;;;;;;5095775;28;20054;-56
2021/12/14 02:35:14;;;;;;;571.20;70.80;;;51.40;2124.80;;;;;;5095833;28;20032;-59
2021/12/14 02:37:45;;;;;;;77.38;39.58;;;51.50;2227.20;;;;;;5095842;28;20024;-58
2021/12/14 02:40:55;;;;;;;65.85;36.20;;;51.70;2176.00;;;;;;5095687;28;20043;-54
2021/12/14 02:43:23;;;;;;;58.15;30.75;;;51.80;2048.00;;;;;;5033092;28;20052;-56
2021/12/14 02:45:50;;;;;;;58.13;30.77;;;51.90;1945.60;;;;;;5033301;28;20061;-56
2021/12/14 02:48:16;;;;;;;55.95;30.88;;;51.80;1971.20;;;;;;5032978;28;20087;-56
2021/12/14 02:50:43;;;;;;;52.03;30.20;;;51.70;1996.80;;;;;;5033349;28;20419;-56
2021/12/14 02:53:12;;;;;;;50.60;29.05;;;51.70;1996.80;;;;;;5033140;28;20129;-56
2021/12/14 02:55:38;;;;;;;47.08;27.42;;;51.70;1996.80;;;;;;5033194;28;20361;-55
2021/12/14 02:58:05;;;;;;;46.42;28.02;;;51.60;1996.80;;;;;;5032986;28;20096;-58
2021/12/14 03:00:46;;;;;;;45.35;27.50;;;51.50;1996.80;;;;;;5032930;28;20060;-56
2021/12/14 03:03:18;;;;;;;43.75;25.60;;;51.50;1996.80;;;;;;5032926;28;20022;-56
2021/12/14 03:05:47;;;;;;;44.10;27.60;;;51.50;1996.80;;;;;;5032847;28;20025;-58
2021/12/14 03:08:18;;;;;;;50.35;29.80;;;51.50;1996.80;;;;;;5032979;28;20037;-56
2021/12/14 03:10:58;;;;;;;49.30;29.67;;;51.60;2150.40;;;;;;5032770;28;20028;-56
2021/12/14 03:13:30;;;;;;;44.65;26.83;;;51.80;2227.20;;;;;;5032818;28;20072;-56
2021/12/14 03:15:59;;;;;;;44.72;24.85;;;51.90;2099.20;;;;;;5015823;28;20037;-58
2021/12/14 03:18:29;;;;;;;39.08;23.60;;;51.90;1996.80;;;;;;5034261;28;20021;-56
2021/12/14 03:21:14;;;;;;;37.38;23.75;;;51.90;1971.20;;;;;;5094781;28;20032;-56
2021/12/14 03:24:00;;;;;;;;;;;51.60;1996.80;;;;;;5095227;28;20016;-56
2021/12/14 03:26:29;;;;;;;40.67;23.85;;;51.60;2022.40;;;;;;5094453;28;20365;-55
2021/12/14 03:28:57;;;;;;;37.10;23.67;;;51.50;2022.40;;;;;;5094889;28;20038;-59
2021/12/14 03:31:34;;;;;;;39.50;23.83;;;51.50;2022.40;;;;;;5094439;28;20024;-56
2021/12/14 03:34:22;;;;;;;36.75;22.45;;;51.40;1996.80;;;;;;5094393;28;20382;-56
2021/12/14 03:36:53;;;;;;;32.33;21.35;;;51.40;1996.80;;;;;;5094693;28;20538;-55
2021/12/14 03:39:32;;;;;;;33.50;20.63;;;51.30;2022.40;;;;;;5094645;28;20055;-55
2021/12/14 03:42:12;;;;;;;33.22;20.02;;;51.30;2022.40;;;;;;5094634;28;20082;-55
2021/12/14 03:44:43;;;;;;;519.63;43.08;;;51.30;2073.60;;;;;;5094995;28;20450;-56
2021/12/14 03:47:17;;;;;;;35.10;22.35;;;51.40;2227.20;;;;;;5094414;28;20469;-58
2021/12/14 03:49:51;;;;;;;33.97;20.83;;;51.50;2150.40;;;;;;5094280;28;20027;-56
2021/12/14 03:52:19;;;;;;;;;;;51.60;2073.60;;;;;;5094511;28;20071;-56
2021/12/14 03:54:45;;;;;;;30.73;18.23;;;51.50;1971.20;;;;;;5094414;28;19935;-58
2021/12/14 03:57:11;;;;;;;29.83;19.25;;;51.50;2022.40;;;;;;5094066;28;20031;-55
2021/12/14 03:59:38;;;;;;;30.25;18.50;;;51.30;2022.40;;;;;;5093762;28;20032;-56
2021/12/14 04:02:06;;;;;;;32.53;20.05;;;51.30;2048.00;;;;;;5094228;28;20024;-58
2021/12/14 04:04:37;;;;;;;29.98;19.48;;;51.20;2048.00;;;;;;5093907;28;20057;-55
2021/12/14 04:07:07;;;;;;;29.45;19.15;;;26.50;1996.80;;;;;;5094183;28;20032;-58
2021/12/14 04:09:35;;;;;;;35.47;22.23;;;51.20;2022.40;;;;;;5093990;28;20028;-56
2021/12/14 04:12:02;;;;;;;40.33;25.73;;;51.20;2022.40;;;;;;5093906;28;20024;-56
2021/12/14 04:14:30;;;;;;;43.45;27.13;;;51.20;2022.40;;;;;;5093777;28;20066;-56
2021/12/14 04:16:59;;;;;;;42.72;25.02;;;26.50;1996.80;;;;;;5093897;28;20035;-57
2021/12/14 04:19:29;;;;;;;124.07;27.83;;;51.20;2073.60;;;;;;5093744;28;20158;-56
2021/12/14 04:22:01;;;;;;;34.53;22.25;;;51.20;2227.20;;;;;;5093759;28;20067;-56
2021/12/14 04:24:33;;;;;;;28.63;18.75;;;51.40;2124.80;;;;;;5093886;28;20584;-57
2021/12/14 04:27:03;;;;;;;28.00;18.00;;;51.40;2048.00;;;;;;5093912;28;20378;-56
2021/12/14 04:29:29;;;;;;;33.67;18.20;;;51.30;1996.80;;;;;;5093846;28;20042;-57
2021/12/14 04:31:55;;;;;;;35.83;21.27;;;26.50;1996.80;;;;;;5093911;28;20488;-56
2021/12/14 04:34:21;;;;;;;35.38;21.15;;;26.50;2073.60;;;;;;5093607;28;20505;-56
2021/12/14 04:36:51;;;;;;;43.05;22.92;;;51.20;2099.20;;;;;;5075537;28;20021;-56
2021/12/14 04:53:32;;;;;;;38.25;22.27;;;51.20;2124.80;;;;;;5098578;28;20480;-56
2021/12/14 04:55:59;;;;;;;40.87;23.03;;;51.20;2124.80;;;;;;5091847;28;20032;-56
2021/12/14 04:58:32;;;;;;;37.60;22.20;;;51.20;2124.80;;;;;;5097646;28;20265;-56
2021/12/14 05:00:59;;;;;;;42.17;24.00;;;51.20;2124.80;;;;;;5097464;28;20475;-55
2021/12/14 05:03:30;;;;;;;40.83;24.45;;;51.20;2124.80;;;;;;5097896;28;20101;-55
2021/12/14 05:12:08;;;;;;;45.53;28.10;;;51.20;2124.80;;;;;;5015623;28;20559;-56
2021/12/14 05:14:37;;;;;;;46.65;28.88;;;26.50;2099.20;;;;;;5015209;28;20038;-56
2021/12/14 05:17:07;;;;;;;47.15;28.65;;;26.50;2099.20;;;;;;5015169;28;20026;-55
2021/12/14 05:19:36;;;;;;;48.63;29.25;;;26.50;2073.60;;;;;;5014890;28;20037;-55
2021/12/14 05:22:14;;;;;;;51.95;30.30;;;26.50;2073.60;;;;;;5015021;28;20054;-55
2021/12/14 05:24:45;;;;;;;51.50;30.50;;;26.50;2099.20;;;;;;5015300;28;20129;-57
2021/12/14 05:27:16;;;;;;;51.38;29.15;;;26.50;2073.60;;;;;;5014931;28;20030;-56
2021/12/14 05:29:42;;;;;;;61.80;32.63;;;26.50;2073.60;;;;;;5015145;28;20034;-56
2021/12/14 05:32:10;;;;;;;69.90;37.60;;;26.50;2073.60;;;;;;5014832;28;20029;-56
2021/12/14 05:34:37;;;;;;;84.30;43.28;;;26.50;2073.60;;;;;;5014806;28;20030;-56
2021/12/14 05:37:05;;;;;;;85.13;47.65;;;26.40;2073.60;;;;;;5015019;28;20034;-55
2021/12/14 05:39:53;;;;;;;88.40;46.65;;;26.50;2073.60;;;;;;5014810;28;20049;-56
2021/12/14 05:45:10;;;;;;;70.03;40.70;;;26.50;2073.60;;;;;;5047677;28;20085;-57
2021/12/14 05:47:46;;;;;;;54.30;31.38;;;26.50;2073.60;;;;;;5096674;28;20047;-56
2021/12/14 05:50:22;;;;;;;57.97;35.25;;;26.50;2073.60;;;;;;5096485;28;20024;-58
2021/12/14 05:52:48;;;;;;;44.95;27.52;;;26.50;2073.60;;;;;;5096730;28;20035;-56
2021/12/14 05:55:19;;;;;;;45.60;26.67;;;26.50;2073.60;;;;;;5095672;28;20024;-56
2021/12/14 05:57:45;;;;;;;39.22;24.00;;;26.50;2073.60;;;;;;5096655;28;20461;-55
2021/12/14 06:00:13;;;;;;;40.38;23.77;;;26.50;2048.00;;;;;;5096389;28;20120;-56
2021/12/14 06:02:40;;;;;;;35.55;21.60;;;26.50;2048.00;;;;;;5096267;28;20380;-56
2021/12/14 06:05:12;;;;;;;35.65;20.70;;;26.50;2048.00;;;;;;5096401;28;20466;-55
2021/12/14 06:07:40;;;;;;;32.00;21.30;;;26.40;2048.00;;;;;;5096237;28;20066;-56
2021/12/14 06:10:06;;;;;;;32.42;19.70;;;26.40;2048.00;;;;;;5096358;28;20373;-55
2021/12/14 06:12:34;;;;;;;33.40;22.25;;;26.50;2073.60;;;;;;5096286;28;20511;-56
2021/12/14 06:15:02;;;;;;;34.20;20.67;;;26.50;2048.00;;;;;;5096327;28;20027;-56
2021/12/14 06:17:32;;;;;;;39.95;24.02;;;26.50;2048.00;;;;;;5096254;28;20016;-56
2021/12/14 06:20:06;;;;;;;43.50;26.63;;;26.50;2073.60;;;;;;5096093;28;20036;-55
2021/12/14 06:22:33;;;;;;;40.17;24.90;;;26.50;2048.00;;;;;;5096037;28;20028;-56
2021/12/14 06:25:02;;;;;;;37.55;22.67;;;26.50;2048.00;;;;;;5095951;28;20024;-56
2021/12/14 06:27:30;;;;;;;41.65;25.27;;;26.50;2048.00;;;;;;5096281;28;20024;-56
2021/12/14 06:30:10;;;;;;;39.70;23.73;;;26.50;2073.60;;;;;;5096035;28;20020;-56
2021/12/14 06:32:39;;;;;;;43.33;27.30;;;26.50;2048.00;;;;;;5095974;28;20020;-56
2021/12/14 06:35:11;;;;;;;52.42;28.27;;;26.50;2073.60;;;;;;5095644;28;20020;-55
2021/12/14 06:41:11;;;;;;;51.53;29.58;;;51.20;2099.20;;;;;;5033449;28;20510;-56
2021/12/14 06:43:40;;;;;;;60.97;34.42;;;26.50;2073.60;;;;;;5033260;28;20553;-56
2021/12/14 06:46:15;;;;;;;63.97;34.60;;;51.20;2099.20;;;;;;5033283;28;20128;-56
2021/12/14 06:48:49;;;;;;;57.67;32.28;;;51.20;2099.20;;;;;;5033977;28;20442;-55
2021/12/14 06:51:21;;;;;;;52.42;30.55;;;51.20;2099.20;;;;;;5032997;28;20483;-55
2021/12/14 06:53:51;;;;;;;58.00;32.50;;;51.20;2099.20;;;;;;5032318;28;20415;-55
2021/12/14 06:56:20;;;;;;;57.92;31.85;;;51.30;2099.20;;;;;;5033231;28;20068;-56
2021/12/14 06:58:53;;;;;;;65.57;35.40;;;51.30;2099.20;;;;;;5033086;28;20041;-55
2021/12/14 07:01:25;;;;;;;67.32;39.13;;;51.30;2099.20;;;;;;5032678;28;20045;-55
2021/12/14 07:03:53;;;;;;;54.78;33.38;;;51.30;2124.80;;;;;;5032808;28;20082;-61
2021/12/14 07:06:29;;;;;;;58.33;33.35;;;51.30;2099.20;;;;;;5032442;28;20475;-61
2021/12/14 07:09:08;;;;;;;55.15;33.53;;;51.30;2099.20;;;;;;5031817;28;20033;-55
2021/12/14 07:11:35;;;;;;;58.75;33.63;;;51.40;2124.80;;;;;;5030135;28;20121;-55
2021/12/14 07:14:02;;;;;;;66.15;37.22;;;51.30;2124.80;;;;;;5032136;28;20029;-55
2021/12/14 07:16:37;;;;;;;97.50;45.97;;;51.40;2124.80;;;;;;5041904;28;20040;-55
2021/12/14 07:19:05;;;;;;;125.28;50.88;;;51.40;2124.80;;;;;;5075392;28;20029;-54
2021/12/14 07:21:47;;;;;;;125.40;56.83;;;51.50;2124.80;;;;;;5081483;28;20040;-56
2021/12/14 07:24:22;;;;;;;92.53;47.65;;;51.50;2124.80;;;;;;5085437;28;20016;-54
2021/12/14 07:26:51;;;;;;;;;;;51.60;2124.80;;;;;;5092536;28;20440;-55
2021/12/14 07:29:24;;;;;;;77.75;42.45;;;51.60;2124.80;;;;;;5094912;28;19905;-56
2021/12/14 07:31:50;;;;;;;69.30;40.13;;;51.70;2124.80;;;;;;5087967;28;20359;-55
2021/12/14 07:34:21;;;;;;;65.32;35.90;;;51.80;2124.80;;;;;;5083884;28;20020;-57
2021/12/14 07:36:47;;;;;;;75.43;37.72;;;51.80;2099.20;;;;;;5084266;28;20025;-57
2021/12/14 07:39:14;;;;;;;76.65;42.83;;;51.80;2099.20;;;;;;5082213;28;20153;-55
2021/12/14 07:41:53;;;;;;;75.25;39.42;;;51.90;2099.20;;;;;;5084691;28;20110;-55
2021/12/14 07:44:23;;;;;;;71.85;39.55;;;51.90;2099.20;;;;;;5084466;28;20046;-57
2021/12/14 07:47:03;;;;;;;71.63;39.92;;;51.90;2099.20;;;;;;5092738;28;20695;-56
2021/12/14 07:49:31;;;;;;;69.35;38.13;;;51.90;2124.80;;;;;;5094239;28;20028;-55
2021/12/14 07:52:10;;;;;;;52.35;30.88;;;77.00;2227.20;;;;;;5094132;28;20021;-55
2021/12/14 07:54:48;;;;;;;51.42;31.95;;;76.90;2201.60;;;;;;5094196;28;20024;-55
2021/12/14 07:57:28;;;;;;;56.08;31.85;;;76.80;2124.80;;;;;;5094205;28;20031;-56
2021/12/14 08:00:01;;;;;;;53.95;31.42;;;76.80;2124.80;;;;;;5093866;28;20036;-55
2021/12/14 08:02:39;;;;;;;53.72;30.55;;;76.80;2124.80;;;;;;5093952;28;20021;-56
2021/12/14 08:05:17;;;;;;;50.33;29.10;;;52.10;2124.80;;;;;;5094184;28;20024;-55
2021/12/14 08:07:53;;;;;;;55.83;35.10;;;52.10;2124.80;;;;;;5093871;28;20369;-54
2021/12/14 08:10:28;;;;;;;68.25;47.53;;;52.10;2124.80;;;;;;5094174;28;20024;-58
2021/12/14 08:12:55;;;;;;;;;;;76.80;2124.80;;;;;;5094315;28;20465;-58
2021/12/14 08:15:24;;;;;;;57.75;35.97;;;76.80;2124.80;;;;;;5090846;28;19915;-58
2021/12/14 08:17:58;;;;;;;63.30;39.88;;;76.80;2124.80;;;;;;5072741;28;20492;-55
2021/12/14 08:20:24;;;;;;;63.83;38.05;;;76.80;2124.80;;;;;;5073625;28;20516;-54
2021/12/14 08:22:50;;;;;;;65.13;37.42;;;76.80;2124.80;;;;;;5073551;28;20028;-55
2021/12/14 08:25:24;;;;;;;62.08;34.97;;;76.80;2150.40;;;;;;5073517;28;20386;-56
2021/12/14 08:28:00;;;;;;;67.70;37.78;;;76.80;2150.40;;;;;;5073282;28;20032;-55
2021/12/14 08:30:26;;;;;;;66.78;39.28;;;76.80;2124.80;;;;;;5073373;28;20115;-54
2021/12/14 08:32:52;;;;;;;60.72;36.08;;;76.90;2124.80;;;;;;5073618;28;20041;-55
2021/12/14 08:35:18;;;;;;;59.80;33.05;;;76.90;2124.80;;;;;;5076731;28;20056;-55
2021/12/14 08:37:53;;;;;;;57.58;31.60;;;77.00;2124.80;;;;;;5071673;28;20024;-55
2021/12/14 08:40:37;;;;;;;57.00;32.17;;;77.00;2124.80;;;;;;5083428;28;20128;-55
2021/12/14 08:43:13;;;;;;;61.22;34.38;;;77.00;2124.80;;;;;;5083266;28;20123;-55
2021/12/14 08:45:42;;;;;;;64.47;36.38;;;77.10;2124.80;;;;;;5083412;28;20036;-55
2021/12/14 08:48:17;;;;;;;58.70;35.50;;;77.10;2124.80;;;;;;5083133;28;20031;-55
2021/12/14 08:50:46;;;;;;;;;;;77.10;2124.80;;;;;;5083372;28;20032;-54
2021/12/14 08:53:15;;;;;;;59.38;33.05;;;77.20;2124.80;;;;;;5082980;28;19911;-54
2021/12/14 08:55:46;;;;;;;58.13;31.40;;;77.20;2124.80;;;;;;5082283;28;20021;-54
2021/12/14 08:58:13;;;;;;;61.75;36.55;;;77.20;2124.80;;;;;;5083998;28;20495;-55
2021/12/14 09:00:44;;;;;;;72.85;40.50;;;77.20;2124.80;;;;;;5083629;28;20037;-55
2021/12/14 09:03:14;;;;;;;58.97;36.20;;;77.40;2099.20;;;;;;5080141;28;20024;-55
2021/12/14 09:05:46;;;;;;;60.20;36.00;;;77.40;2099.20;;;;;;5073056;28;20024;-55
2021/12/14 09:08:13;;;;;;;68.63;43.20;;;77.50;2099.20;;;;;;5073301;28;20387;-55
2021/12/14 09:10:40;;;;;;;59.10;39.70;;;77.50;2099.20;;;;;;5073487;28;20062;-56
2021/12/14 09:13:11;;;;;;;56.70;36.20;;;77.50;2099.20;;;;;;5073241;28;20024;-56
2021/12/14 09:15:45;;;;;;;126.80;79.38;;;77.50;2124.80;;;;;;5054867;28;20475;-55
2021/12/14 09:18:12;;;;;;;108.30;70.03;;;77.60;2099.20;;;;;;5073507;28;20374;-55
2021/12/14 09:20:48;;;;;;;92.93;58.65;;;77.50;2099.20;;;;;;5073138;28;20033;-55
2021/12/14 09:23:19;;;;;;;141.77;76.47;;;77.60;2099.20;;;;;;5073289;28;20064;-55
2021/12/14 09:25:46;;;;;;;140.52;74.28;;;77.60;2099.20;;;;;;5073263;28;20422;-55
2021/12/14 09:28:13;;;;;;;198.52;99.80;;;77.70;2099.20;;;;;;5073314;28;20100;-55
2021/12/14 09:30:44;;;;;;;241.65;108.22;;;77.70;2099.20;;;;;;5076813;28;20039;-56
2021/12/14 09:33:12;;;;;;;145.90;73.00;;;77.70;2124.80;;;;;;5076622;28;20085;-55
2021/12/14 09:35:40;;;;;;;166.68;85.75;;;77.70;2099.20;;;;;;5076750;28;20409;-55
2021/12/14 09:38:10;;;;;;;158.05;82.22;;;77.70;2099.20;;;;;;5076662;28;20075;-55
2021/12/14 09:40:42;;;;;;;151.63;70.35;;;77.70;2099.20;;;;;;5076639;28;20378;-56
2021/12/14 09:43:08;;;;;;;131.48;57.50;;;77.70;2124.80;;;;;;5076177;28;20036;-56
2021/12/14 09:45:44;;;;;;;133.15;61.08;;;77.70;2124.80;;;;;;5076694;28;20086;-55
2021/12/14 09:48:18;;;;;;;103.63;52.75;;;77.70;2099.20;;;;;;5076373;28;20519;-56
2021/12/14 09:50:46;;;;;;;117.20;59.08;;;102.40;2099.20;;;;;;5076437;28;20025;-56
2021/12/14 09:53:16;;;;;;;231.30;93.18;;;102.40;2099.20;;;;;;5076328;28;20527;-55
2021/12/14 09:55:44;;;;;;;229.45;97.50;;;102.50;2099.20;;;;;;5076358;28;20035;-55
2021/12/14 09:58:18;;;;;;;166.95;78.00;;;102.50;2099.20;;;;;;5076225;28;20036;-55
2021/12/14 10:00:55;;;;;;;228.70;96.63;;;102.50;2124.80;;;;;;5076231;28;20028;-56
2021/12/14 10:03:22;;;;;;;266.98;111.65;;;102.50;2124.80;;;;;;5076143;28;20035;-57
2021/12/14 10:05:53;;;;;;;204.50;90.30;;;102.50;2099.20;;;;;;5076182;28;20024;-56
2021/12/14 10:08:25;;;;;;;148.38;70.45;;;102.60;2099.20;;;;;;5076061;28;20024;-56
2021/12/14 10:11:01;;;;;;;114.53;62.47;;;102.60;2099.20;;;;;;5075911;28;20054;-56
2021/12/14 10:13:29;;;;;;;94.07;53.20;;;102.60;2099.20;;;;;;5075924;28;20459;-56
2021/12/14 10:15:56;;;;;;;84.68;49.70;;;102.60;2099.20;;;;;;5075953;28;20382;-55
2021/12/14 10:18:38;;;;;;;78.63;43.90;;;102.60;2099.20;;;;;;5075947;28;20095;-55
2021/12/14 10:21:17;;;;;;;82.63;44.80;;;102.60;2099.20;;;;;;5076110;28;20036;-57
2021/12/14 10:23:44;;;;;;;76.05;43.00;;;102.60;2099.20;;;;;;5076099;28;20508;-55
2021/12/14 10:26:11;;;;;;;83.28;44.72;;;102.70;2099.20;;;;;;5075872;28;20374;-56
2021/12/14 10:28:41;;;;;;;87.57;47.63;;;102.70;2099.20;;;;;;5075797;28;20074;-55
2021/12/14 10:31:16;;;;;;;86.57;50.13;;;102.80;2099.20;;;;;;5075972;28;20111;-55
2021/12/14 10:33:43;;;;;;;188.65;81.70;;;102.80;2099.20;;;;;;5075626;28;20096;-55
2021/12/14 10:36:31;;;;;;;131.88;64.97;;;102.90;2099.20;;;;;;5075685;28;20036;-55
2021/12/14 10:39:07;;;;;;;124.07;65.18;;;102.80;2099.20;;;;;;5075446;28;20021;-55
2021/12/14 10:44:21;;;;;;;166.25;85.43;;;102.90;2099.20;;;;;;5075275;28;20052;-56
2021/12/14 10:46:50;;;;;;;132.52;70.18;;;103.00;2124.80;;;;;;5075394;28;20025;-56
2021/12/14 10:49:19;;;;;;;116.35;60.88;;;103.00;2099.20;;;;;;5075428;28;20032;-56
2021/12/14 10:51:47;;;;;;;101.88;54.65;;;102.90;2099.20;;;;;;5075499;28;20025;-55
2021/12/14 10:54:15;;;;;;;91.60;51.25;;;102.90;2099.20;;;;;;5075040;28;20086;-55
2021/12/14 10:56:46;;;;;;;90.78;51.58;;;103.00;2099.20;;;;;;5075230;28;20046;-55
2021/12/14 10:59:17;;;;;;;94.80;50.85;;;103.00;2099.20;;;;;;5075174;28;20052;-56
2021/12/14 11:01:49;;;;;;;98.70;52.67;;;103.00;2099.20;;;;;;5075007;28;20115;-55
2021/12/14 11:04:16;;;;;;;95.43;47.22;;;102.90;2099.20;;;;;;5074742;28;20056;-55
2021/12/14 11:06:45;;;;;;;115.78;57.15;;;103.00;2099.20;;;;;;5075032;28;20529;-55
2021/12/14 11:09:42;;;;;;;180.60;81.40;;;103.00;2124.80;;;;;;5074995;28;20473;-55
2021/12/14 11:12:18;;;;;;;219.57;96.50;;;103.00;2099.20;;;;;;5075075;28;20032;-56
2021/12/14 11:14:45;;;;;;;270.17;119.10;;;103.00;2099.20;;;;;;5074984;28;20020;-55
2021/12/14 11:20:02;;;;;;;320.13;139.45;;;103.10;2099.20;;;;;;5074758;28;20031;-56
2021/12/14 11:22:46;;;;;;;268.02;125.30;;;103.10;2099.20;;;;;;5057432;28;20020;-56
2021/12/14 11:25:17;;;;;;;179.57;85.63;;;103.10;2099.20;;;;;;5074614;28;20074;-56
2021/12/14 11:27:47;;;;;;;133.68;62.72;;;103.10;2073.60;;;;;;5074601;28;20063;-66
2021/12/14 11:30:31;;;;;;;117.60;58.72;;;103.10;2073.60;;;;;;5076479;28;20036;-61
2021/12/14 11:33:28;;;;;;;119.18;60.40;;;103.10;2073.60;;;;;;5084301;28;20103;-59
2021/12/14 11:36:13;;;;;;;128.88;68.05;;;103.10;2073.60;;;;;;5029789;28;20030;-59
2021/12/14 11:39:11;;;;;;;121.03;65.88;;;103.20;2073.60;;;;;;5013732;28;20025;-59
2021/12/14 11:41:47;;;;;;;110.68;61.45;;;103.10;2073.60;;;;;;4972677;28;20149;-59
2021/12/14 11:44:37;;;;;;;119.15;63.38;;;103.20;2073.60;;;;;;4970963;28;20054;-58
2021/12/14 11:49:54;;;;;;;111.80;62.63;;;103.10;2073.60;;;;;;4973447;28;20089;-59
2021/12/14 11:52:50;;;;;;;117.32;64.13;;;103.10;2099.20;;;;;;4973421;28;20077;-60
2021/12/14 11:55:44;;;;;;;133.57;73.10;;;103.10;2073.60;;;;;;4973218;28;20122;-60
2021/12/14 11:58:19;;;;;;;124.35;70.70;;;103.10;2099.20;;;;;;4973459;28;20045;-59
2021/12/14 12:00:49;;;;;;;120.22;65.72;;;103.10;2099.20;;;;;;4973320;28;20038;-64
2021/12/14 12:03:40;;;;;;;214.32;117.78;;;103.20;2099.20;;;;;;4973162;28;20122;-61
2021/12/14 12:06:44;;;;;;;515.08;321.42;;;128.10;2201.60;;;;;;4973272;28;20520;-60
2021/12/14 12:09:36;;;;;;;252.20;147.70;;;128.10;2099.20;;;;;;4973171;28;20110;-61
2021/12/14 12:12:05;;;;;;;178.65;103.30;;;128.10;2099.20;;;;;;4976802;28;20046;-60
2021/12/14 12:14:30;;;;;;;152.50;81.20;;;128.10;2099.20;;;;;;4992381;28;20086;-60
2021/12/14 12:17:16;;;;;;;139.35;74.53;;;128.10;2124.80;;;;;;5031557;28;20040;-59
2021/12/14 12:20:05;;;;;;;185.48;98.78;;;128.10;2099.20;;;;;;5030426;28;20060;-61
2021/12/14 12:22:37;;;;;;;420.52;188.63;;;128.00;2099.20;;;;;;5030017;28;20037;-60
2021/12/14 12:25:06;;;;;;;196.73;99.07;;;128.10;2099.20;;;;;;5030092;28;20045;-59
2021/12/14 12:27:52;;;;;;;184.57;96.60;;;128.10;2124.80;;;;;;5013679;28;20033;-59
2021/12/14 12:30:29;;;;;;;160.45;84.85;;;128.10;2099.20;;;;;;5029896;28;20037;-59
2021/12/14 12:32:57;;;;;;;262.23;145.82;;;128.10;2099.20;;;;;;5028473;28;20080;-60
2021/12/14 12:35:29;;;;;;;200.90;111.35;;;128.00;2099.20;;;;;;5030654;28;20022;-60
2021/12/14 12:38:00;;;;;;;229.48;132.23;;;128.00;2099.20;;;;;;5031100;28;20025;-60
2021/12/14 12:40:39;;;;;;;195.80;107.68;;;128.00;2099.20;;;;;;5031275;28;20022;-59
2021/12/14 12:43:19;;;;;;;174.98;99.65;;;128.00;2099.20;;;;;;5030091;28;20423;-60
2021/12/14 12:46:13;;;;;;;152.75;88.53;;;128.00;2099.20;;;;;;5031322;28;20107;-59
2021/12/14 12:48:52;;;;;;;160.43;86.78;;;128.10;2099.20;;;;;;5028166;28;20064;-59
2021/12/14 12:51:56;;;;;;;137.82;81.90;;;128.10;2099.20;;;;;;5030599;28;20056;-59
2021/12/14 12:54:27;;;;;;;130.13;73.40;;;128.00;2099.20;;;;;;4952479;29;20038;-60
2021/12/14 12:57:11;;;;;;;126.30;72.07;;;128.10;2099.20;;;;;;4971383;28;20434;-59
2021/12/14 12:59:49;;;;;;;125.25;70.13;;;128.10;2124.80;;;;;;4989850;28;20036;-59
2021/12/14 13:02:27;;;;;;;139.00;80.50;;;128.10;2099.20;;;;;;4989611;28;20061;-59
2021/12/14 13:04:58;;;;;;;141.43;87.78;;;128.10;2099.20;;;;;;4992236;28;20451;-62
2021/12/14 13:07:43;;;;;;;144.07;77.80;;;128.10;2099.20;;;;;;4995865;28;20034;-60
2021/12/14 13:10:18;;;;;;;136.43;73.38;;;128.20;2150.40;;;;;;4995053;28;20496;-58
2021/12/14 13:12:46;;;;;;;166.35;90.40;;;128.10;2124.80;;;;;;4995140;28;20074;-57
2021/12/14 13:15:37;;;;;;;157.98;84.90;;;128.10;2124.80;;;;;;4995109;28;20049;-58
2021/12/14 13:18:33;;;;;;;197.90;104.88;;;128.10;2124.80;;;;;;4994617;28;20038;-59
2021/12/14 13:21:17;;;;;;;208.68;106.90;;;128.10;2124.80;;;;;;4993844;28;20045;-59